sensor_id;sensor_type;location;lat;lon;timestamp;pressure;altitude;pressure_sealevel;temperature;humidity
16461;BME280;8341;42.048;24.650;2024-03-25T00:00:25;95592.16;;;12.18;85.05
16461;BME280;8341;42.048;24.650;2024-03-25T00:02:52;95569.09;;;12.01;86.42
16461;BME280;8341;42.048;24.650;2024-03-25T00:05:19;95574.00;;;12.21;85.06
16461;BME280;8341;42.048;24.650;2024-03-25T00:07:48;95570.19;;;12.11;85.61
16461;BME280;8341;42.048;24.650;2024-03-25T00:10:14;95558.50;;;12.10;85.08
16461;BME280;8341;42.048;24.650;2024-03-25T00:12:42;95548.09;;;11.96;86.28
16461;BME280;8341;42.048;24.650;2024-03-25T00:15:08;95546.28;;;11.85;87.25
16461;BME280;8341;42.048;24.650;2024-03-25T00:17:36;95551.41;;;11.75;86.83
16461;BME280;8341;42.048;24.650;2024-03-25T00:20:03;95548.44;;;11.73;87.36
16461;BME280;8341;42.048;24.650;2024-03-25T00:22:31;95537.00;;;11.75;85.57
16461;BME280;8341;42.048;24.650;2024-03-25T00:24:57;95534.84;;;11.68;85.98
16461;BME280;8341;42.048;24.650;2024-03-25T00:27:24;95529.91;;;11.66;85.36
16461;BME280;8341;42.048;24.650;2024-03-25T00:29:50;95561.56;;;11.75;85.09
16461;BME280;8341;42.048;24.650;2024-03-25T00:32:17;95566.09;;;11.72;83.59
16461;BME280;8341;42.048;24.650;2024-03-25T00:34:44;95557.19;;;11.66;83.60
16461;BME280;8341;42.048;24.650;2024-03-25T00:37:11;95545.66;;;11.60;83.76
16461;BME280;8341;42.048;24.650;2024-03-25T00:39:37;95551.41;;;11.38;85.66
16461;BME280;8341;42.048;24.650;2024-03-25T00:42:05;95535.84;;;11.33;87.21
16461;BME280;8341;42.048;24.650;2024-03-25T00:44:30;95549.13;;;11.42;86.16
16461;BME280;8341;42.048;24.650;2024-03-25T00:46:57;95540.34;;;11.49;85.48
16461;BME280;8341;42.048;24.650;2024-03-25T00:49:23;95558.97;;;11.64;84.53
16461;BME280;8341;42.048;24.650;2024-03-25T00:51:52;95552.88;;;11.58;84.70
16461;BME280;8341;42.048;24.650;2024-03-25T00:54:18;95572.44;;;11.43;86.40
16461;BME280;8341;42.048;24.650;2024-03-25T00:56:45;95581.72;;;11.53;85.99
16461;BME280;8341;42.048;24.650;2024-03-25T00:59:11;95589.53;;;11.62;85.37
16461;BME280;8341;42.048;24.650;2024-03-25T01:01:39;95615.44;;;11.74;84.64
16461;BME280;8341;42.048;24.650;2024-03-25T01:04:04;95657.34;;;11.77;86.30
16461;BME280;8341;42.048;24.650;2024-03-25T01:06:31;95664.38;;;11.72;88.66
16461;BME280;8341;42.048;24.650;2024-03-25T01:09:00;95684.41;;;11.56;92.29
16461;BME280;8341;42.048;24.650;2024-03-25T01:11:27;95691.06;;;11.42;93.02
16461;BME280;8341;42.048;24.650;2024-03-25T01:13:53;95719.59;;;11.41;91.97
16461;BME280;8341;42.048;24.650;2024-03-25T01:16:20;95737.34;;;11.29;91.13
16461;BME280;8341;42.048;24.650;2024-03-25T01:18:46;95750.59;;;11.19;88.58
16461;BME280;8341;42.048;24.650;2024-03-25T01:21:13;95766.16;;;11.00;87.20
16461;BME280;8341;42.048;24.650;2024-03-25T01:23:39;95769.75;;;10.84;90.29
16461;BME280;8341;42.048;24.650;2024-03-25T01:26:07;95777.09;;;10.65;91.89
16461;BME280;8341;42.048;24.650;2024-03-25T01:28:33;95787.03;;;10.62;94.40
16461;BME280;8341;42.048;24.650;2024-03-25T01:31:01;95795.13;;;10.38;95.15
16461;BME280;8341;42.048;24.650;2024-03-25T01:33:27;95808.88;;;10.11;96.96
16461;BME280;8341;42.048;24.650;2024-03-25T01:35:54;95812.94;;;9.93;100.00
16461;BME280;8341;42.048;24.650;2024-03-25T01:38:21;95811.53;;;9.70;100.00
16461;BME280;8341;42.048;24.650;2024-03-25T01:40:48;95832.63;;;9.41;100.00
16461;BME280;8341;42.048;24.650;2024-03-25T01:43:15;95816.31;;;9.30;100.00
16461;BME280;8341;42.048;24.650;2024-03-25T01:45:43;95830.44;;;9.18;100.00
16461;BME280;8341;42.048;24.650;2024-03-25T01:48:10;95831.19;;;9.18;100.00
16461;BME280;8341;42.048;24.650;2024-03-25T01:50:42;95842.53;;;9.17;100.00
16461;BME280;8341;42.048;24.650;2024-03-25T01:53:09;95849.00;;;9.08;100.00
16461;BME280;8341;42.048;24.650;2024-03-25T01:55:38;95838.13;;;8.97;100.00
16461;BME280;8341;42.048;24.650;2024-03-25T01:58:05;95836.88;;;8.87;100.00
16461;BME280;8341;42.048;24.650;2024-03-25T02:00:33;95845.28;;;8.72;100.00
16461;BME280;8341;42.048;24.650;2024-03-25T02:03:00;95841.59;;;8.75;100.00
16461;BME280;8341;42.048;24.650;2024-03-25T02:05:28;95843.03;;;8.71;100.00
16461;BME280;8341;42.048;24.650;2024-03-25T02:07:54;95842.56;;;8.67;100.00
16461;BME280;8341;42.048;24.650;2024-03-25T02:10:22;95844.31;;;8.75;100.00
16461;BME280;8341;42.048;24.650;2024-03-25T02:12:49;95828.47;;;8.79;100.00
16461;BME280;8341;42.048;24.650;2024-03-25T02:15:16;95829.22;;;8.69;100.00
16461;BME280;8341;42.048;24.650;2024-03-25T02:17:44;95825.00;;;8.73;100.00
16461;BME280;8341;42.048;24.650;2024-03-25T02:20:12;95806.00;;;8.79;100.00
16461;BME280;8341;42.048;24.650;2024-03-25T02:22:41;95797.09;;;8.84;100.00
16461;BME280;8341;42.048;24.650;2024-03-25T02:25:09;95809.47;;;8.85;100.00
16461;BME280;8341;42.048;24.650;2024-03-25T02:27:38;95790.91;;;8.83;100.00
16461;BME280;8341;42.048;24.650;2024-03-25T02:30:06;95792.66;;;8.92;100.00
16461;BME280;8341;42.048;24.650;2024-03-25T02:32:33;95804.00;;;8.96;100.00
16461;BME280;8341;42.048;24.650;2024-03-25T02:35:01;95799.81;;;9.01;100.00
16461;BME280;8341;42.048;24.650;2024-03-25T02:37:28;95809.94;;;9.11;100.00
16461;BME280;8341;42.048;24.650;2024-03-25T02:39:58;95808.69;;;9.18;100.00
16461;BME280;8341;42.048;24.650;2024-03-25T02:42:24;95824.00;;;9.21;100.00
16461;BME280;8341;42.048;24.650;2024-03-25T02:44:53;95807.69;;;9.15;100.00
16461;BME280;8341;42.048;24.650;2024-03-25T02:47:19;95814.59;;;9.22;100.00
16461;BME280;8341;42.048;24.650;2024-03-25T02:49:46;95829.94;;;9.30;100.00
16461;BME280;8341;42.048;24.650;2024-03-25T02:52:12;95835.13;;;9.23;100.00
16461;BME280;8341;42.048;24.650;2024-03-25T02:54:39;95832.69;;;9.08;100.00
16461;BME280;8341;42.048;24.650;2024-03-25T02:57:05;95831.44;;;9.15;100.00
16461;BME280;8341;42.048;24.650;2024-03-25T02:59:32;95842.06;;;9.18;100.00
16461;BME280;8341;42.048;24.650;2024-03-25T03:01:59;95840.56;;;9.17;100.00
16461;BME280;8341;42.048;24.650;2024-03-25T03:04:26;95840.81;;;9.19;100.00
16461;BME280;8341;42.048;24.650;2024-03-25T03:06:52;95825.22;;;9.25;100.00
16461;BME280;8341;42.048;24.650;2024-03-25T03:09:19;95815.84;;;9.26;100.00
16461;BME280;8341;42.048;24.650;2024-03-25T03:11:45;95810.38;;;9.37;100.00
16461;BME280;8341;42.048;24.650;2024-03-25T03:14:12;95805.44;;;9.41;100.00
16461;BME280;8341;42.048;24.650;2024-03-25T03:16:38;95795.53;;;9.50;100.00
16461;BME280;8341;42.048;24.650;2024-03-25T03:19:07;95789.81;;;9.53;100.00
16461;BME280;8341;42.048;24.650;2024-03-25T03:21:33;95790.78;;;9.56;100.00
16461;BME280;8341;42.048;24.650;2024-03-25T03:23:59;95794.97;;;9.62;100.00
16461;BME280;8341;42.048;24.650;2024-03-25T03:26:25;95788.50;;;9.71;100.00
16461;BME280;8341;42.048;24.650;2024-03-25T03:28:53;95783.34;;;9.67;100.00
16461;BME280;8341;42.048;24.650;2024-03-25T03:31:19;95772.91;;;9.71;100.00
16461;BME280;8341;42.048;24.650;2024-03-25T03:33:47;95763.78;;;9.69;100.00
16461;BME280;8341;42.048;24.650;2024-03-25T03:36:15;95761.28;;;9.71;100.00
16461;BME280;8341;42.048;24.650;2024-03-25T03:38:42;95763.25;;;9.76;100.00
16461;BME280;8341;42.048;24.650;2024-03-25T03:41:08;95770.66;;;9.81;100.00
16461;BME280;8341;42.048;24.650;2024-03-25T03:43:35;95775.09;;;9.84;100.00
16461;BME280;8341;42.048;24.650;2024-03-25T03:46:02;95777.78;;;9.21;100.00
16461;BME280;8341;42.048;24.650;2024-03-25T03:48:29;95792.03;;;7.99;100.00
16461;BME280;8341;42.048;24.650;2024-03-25T03:50:55;95798.16;;;7.89;100.00
16461;BME280;8341;42.048;24.650;2024-03-25T03:53:24;95801.94;;;8.13;100.00
16461;BME280;8341;42.048;24.650;2024-03-25T03:55:53;95803.22;;;8.24;100.00
16461;BME280;8341;42.048;24.650;2024-03-25T03:58:21;95802.19;;;8.10;100.00
16461;BME280;8341;42.048;24.650;2024-03-25T04:00:47;95827.63;;;8.24;100.00
16461;BME280;8341;42.048;24.650;2024-03-25T04:03:14;95836.50;;;8.18;100.00
16461;BME280;8341;42.048;24.650;2024-03-25T04:05:40;95843.41;;;8.08;100.00
16461;BME280;8341;42.048;24.650;2024-03-25T04:08:07;95850.03;;;8.02;100.00
16461;BME280;8341;42.048;24.650;2024-03-25T04:10:35;95863.41;;;8.11;100.00
16461;BME280;8341;42.048;24.650;2024-03-25T04:13:03;95885.13;;;8.16;100.00
16461;BME280;8341;42.048;24.650;2024-03-25T04:15:29;95880.53;;;7.80;100.00
16461;BME280;8341;42.048;24.650;2024-03-25T04:17:57;95907.34;;;7.67;100.00
16461;BME280;8341;42.048;24.650;2024-03-25T04:20:23;95910.28;;;7.64;100.00
16461;BME280;8341;42.048;24.650;2024-03-25T04:22:50;95912.31;;;7.74;100.00
16461;BME280;8341;42.048;24.650;2024-03-25T04:25:17;95928.72;;;7.91;100.00
16461;BME280;8341;42.048;24.650;2024-03-25T04:27:45;95936.84;;;7.91;100.00
16461;BME280;8341;42.048;24.650;2024-03-25T04:30:11;95938.59;;;7.99;100.00
16461;BME280;8341;42.048;24.650;2024-03-25T04:32:39;95944.00;;;7.94;100.00
16461;BME280;8341;42.048;24.650;2024-03-25T04:35:06;95944.50;;;7.92;100.00
16461;BME280;8341;42.048;24.650;2024-03-25T04:37:34;95945.00;;;7.91;100.00
16461;BME280;8341;42.048;24.650;2024-03-25T04:40:00;95949.72;;;7.96;100.00
16461;BME280;8341;42.048;24.650;2024-03-25T04:42:26;95937.13;;;7.98;100.00
16461;BME280;8341;42.048;24.650;2024-03-25T04:44:54;95942.28;;;7.91;100.00
16461;BME280;8341;42.048;24.650;2024-03-25T04:47:20;95949.44;;;7.94;100.00
16461;BME280;8341;42.048;24.650;2024-03-25T04:49:46;95947.00;;;7.96;100.00
16461;BME280;8341;42.048;24.650;2024-03-25T04:52:12;95942.00;;;7.89;100.00
16461;BME280;8341;42.048;24.650;2024-03-25T04:54:38;95950.13;;;7.89;100.00
16461;BME280;8341;42.048;24.650;2024-03-25T04:57:05;95957.28;;;7.86;100.00
16461;BME280;8341;42.048;24.650;2024-03-25T04:59:31;95959.06;;;7.95;100.00
16461;BME280;8341;42.048;24.650;2024-03-25T05:01:59;95969.47;;;8.02;100.00
16461;BME280;8341;42.048;24.650;2024-03-25T05:04:25;95959.41;;;8.13;100.00
16461;BME280;8341;42.048;24.650;2024-03-25T05:06:51;95955.50;;;8.26;100.00
16461;BME280;8341;42.048;24.650;2024-03-25T05:09:17;95961.91;;;8.23;100.00
16461;BME280;8341;42.048;24.650;2024-03-25T05:11:43;95959.78;;;8.38;100.00
16461;BME280;8341;42.048;24.650;2024-03-25T05:14:09;95954.91;;;8.47;100.00
16461;BME280;8341;42.048;24.650;2024-03-25T05:16:36;95954.41;;;8.49;100.00
16461;BME280;8341;42.048;24.650;2024-03-25T05:19:03;95973.00;;;8.67;100.00
16461;BME280;8341;42.048;24.650;2024-03-25T05:21:30;95973.69;;;8.56;100.00
16461;BME280;8341;42.048;24.650;2024-03-25T05:23:55;95984.31;;;8.54;98.82
16461;BME280;8341;42.048;24.650;2024-03-25T05:26:21;95993.72;;;8.59;100.00
16461;BME280;8341;42.048;24.650;2024-03-25T05:28:52;95995.94;;;8.55;96.21
16461;BME280;8341;42.048;24.650;2024-03-25T05:31:18;96000.88;;;8.62;98.59
16461;BME280;8341;42.048;24.650;2024-03-25T05:33:44;96002.09;;;8.61;97.25
16461;BME280;8341;42.048;24.650;2024-03-25T05:36:11;95993.22;;;8.66;100.00
16461;BME280;8341;42.048;24.650;2024-03-25T05:38:37;95998.72;;;8.82;96.17
16461;BME280;8341;42.048;24.650;2024-03-25T05:41:04;96003.94;;;8.92;94.24
16461;BME280;8341;42.048;24.650;2024-03-25T05:43:30;96021.22;;;8.83;92.66
16461;BME280;8341;42.048;24.650;2024-03-25T05:45:56;96017.06;;;8.93;93.73
16461;BME280;8341;42.048;24.650;2024-03-25T05:48:24;96023.50;;;9.01;93.20
16461;BME280;8341;42.048;24.650;2024-03-25T05:51:00;96025.97;;;9.05;92.08
16461;BME280;8341;42.048;24.650;2024-03-25T05:53:28;96025.50;;;9.06;92.42
16461;BME280;8341;42.048;24.650;2024-03-25T05:55:55;96037.34;;;9.14;90.88
16461;BME280;8341;42.048;24.650;2024-03-25T05:58:21;96029.91;;;8.98;88.30
16461;BME280;8341;42.048;24.650;2024-03-25T06:00:47;96037.34;;;9.03;88.73
16461;BME280;8341;42.048;24.650;2024-03-25T06:03:14;96029.91;;;8.98;89.80
16461;BME280;8341;42.048;24.650;2024-03-25T06:05:40;96036.56;;;8.92;88.96
16461;BME280;8341;42.048;24.650;2024-03-25T06:08:07;96038.28;;;8.89;86.92
16461;BME280;8341;42.048;24.650;2024-03-25T06:10:38;96046.97;;;8.99;86.28
16461;BME280;8341;42.048;24.650;2024-03-25T06:13:04;96045.69;;;8.83;87.05
16461;BME280;8341;42.048;24.650;2024-03-25T06:15:30;96055.59;;;8.92;84.68
16461;BME280;8341;42.048;24.650;2024-03-25T06:17:56;96069.94;;;8.92;85.92
16461;BME280;8341;42.048;24.650;2024-03-25T06:20:22;96077.03;;;8.78;84.00
16461;BME280;8341;42.048;24.650;2024-03-25T06:22:48;96077.78;;;8.79;84.92
16461;BME280;8341;42.048;24.650;2024-03-25T06:25:14;96075.31;;;8.81;86.26
16461;BME280;8341;42.048;24.650;2024-03-25T06:27:42;96068.22;;;8.95;87.65
16461;BME280;8341;42.048;24.650;2024-03-25T06:30:09;96078.31;;;8.83;86.58
16461;BME280;8341;42.048;24.650;2024-03-25T06:32:53;96087.38;;;8.69;87.04
16461;BME280;8341;42.048;24.650;2024-03-25T06:35:37;96088.16;;;8.75;86.63
16461;BME280;8341;42.048;24.650;2024-03-25T06:38:03;96090.41;;;8.82;84.14
16461;BME280;8341;42.048;24.650;2024-03-25T06:40:30;96111.19;;;8.85;83.20
16461;BME280;8341;42.048;24.650;2024-03-25T06:42:57;96108.00;;;8.92;84.14
16461;BME280;8341;42.048;24.650;2024-03-25T06:45:23;96116.16;;;8.98;84.27
16461;BME280;8341;42.048;24.650;2024-03-25T06:47:49;96118.66;;;9.01;82.28
16461;BME280;8341;42.048;24.650;2024-03-25T06:50:15;96129.00;;;8.92;81.71
16461;BME280;8341;42.048;24.650;2024-03-25T06:52:41;96130.25;;;8.96;84.08
16461;BME280;8341;42.048;24.650;2024-03-25T06:55:08;96130.66;;;8.78;84.11
16461;BME280;8341;42.048;24.650;2024-03-25T06:57:34;96119.53;;;8.76;83.91
16461;BME280;8341;42.048;24.650;2024-03-25T07:00:01;96131.09;;;8.71;83.63
16461;BME280;8341;42.048;24.650;2024-03-25T07:02:27;96133.31;;;8.67;84.53
16461;BME280;8341;42.048;24.650;2024-03-25T07:04:53;96132.50;;;8.55;81.97
16461;BME280;8341;42.048;24.650;2024-03-25T07:07:19;96134.97;;;8.53;82.99
16461;BME280;8341;42.048;24.650;2024-03-25T07:09:45;96131.78;;;8.60;84.00
16461;BME280;8341;42.048;24.650;2024-03-25T07:12:11;96120.63;;;8.53;82.74
16461;BME280;8341;42.048;24.650;2024-03-25T07:14:37;96128.09;;;8.63;81.03
16461;BME280;8341;42.048;24.650;2024-03-25T07:17:04;96145.88;;;8.59;80.84
16461;BME280;8341;42.048;24.650;2024-03-25T07:19:30;96141.41;;;8.56;81.61
16461;BME280;8341;42.048;24.650;2024-03-25T07:21:56;96151.59;;;8.66;80.10
16461;BME280;8341;42.048;24.650;2024-03-25T07:24:22;96153.81;;;8.62;78.68
16461;BME280;8341;42.048;24.650;2024-03-25T07:26:48;96158.56;;;8.73;79.14
16461;BME280;8341;42.048;24.650;2024-03-25T07:29:14;96152.41;;;8.78;75.80
16461;BME280;8341;42.048;24.650;2024-03-25T07:31:40;96158.09;;;8.80;77.46
16461;BME280;8341;42.048;24.650;2024-03-25T07:34:07;96160.19;;;9.02;75.54
16461;BME280;8341;42.048;24.650;2024-03-25T07:36:34;96172.09;;;9.10;77.14
16461;BME280;8341;42.048;24.650;2024-03-25T07:39:00;96171.38;;;9.15;74.69
16461;BME280;8341;42.048;24.650;2024-03-25T07:41:26;96184.19;;;9.03;73.94
16461;BME280;8341;42.048;24.650;2024-03-25T07:43:52;96180.78;;;9.14;73.92
16461;BME280;8341;42.048;24.650;2024-03-25T07:46:18;96187.69;;;9.15;74.38
16461;BME280;8341;42.048;24.650;2024-03-25T07:48:44;96186.25;;;9.25;73.89
16461;BME280;8341;42.048;24.650;2024-03-25T07:51:11;96182.28;;;9.26;73.66
16461;BME280;8341;42.048;24.650;2024-03-25T07:53:37;96180.56;;;9.28;71.27
16461;BME280;8341;42.048;24.650;2024-03-25T07:56:04;96175.41;;;9.36;73.09
16461;BME280;8341;42.048;24.650;2024-03-25T07:58:30;96183.78;;;9.21;72.35
16461;BME280;8341;42.048;24.650;2024-03-25T08:00:56;96186.00;;;9.23;71.10
16461;BME280;8341;42.048;24.650;2024-03-25T08:03:22;96187.78;;;9.31;71.22
16461;BME280;8341;42.048;24.650;2024-03-25T08:05:48;96189.75;;;9.36;70.61
16461;BME280;8341;42.048;24.650;2024-03-25T08:08:16;96189.28;;;9.43;71.55
16461;BME280;8341;42.048;24.650;2024-03-25T08:10:42;96192.25;;;9.45;71.23
16461;BME280;8341;42.048;24.650;2024-03-25T08:13:08;96209.59;;;9.54;69.31
16461;BME280;8341;42.048;24.650;2024-03-25T08:15:34;96207.41;;;9.63;66.76
16461;BME280;8341;42.048;24.650;2024-03-25T08:18:00;96204.69;;;9.58;66.74
16461;BME280;8341;42.048;24.650;2024-03-25T08:20:26;96201.78;;;9.83;68.54
16461;BME280;8341;42.048;24.650;2024-03-25T08:22:53;96208.75;;;10.01;67.42
16461;BME280;8341;42.048;24.650;2024-03-25T08:25:20;96208.06;;;10.34;64.80
16461;BME280;8341;42.048;24.650;2024-03-25T08:27:46;96213.03;;;10.63;67.13
16461;BME280;8341;42.048;24.650;2024-03-25T08:30:12;96213.00;;;10.68;63.84
16461;BME280;8341;42.048;24.650;2024-03-25T08:32:38;96217.50;;;10.60;63.11
16461;BME280;8341;42.048;24.650;2024-03-25T08:35:05;96229.38;;;10.57;62.07
16461;BME280;8341;42.048;24.650;2024-03-25T08:37:31;96231.09;;;10.72;62.33
16461;BME280;8341;42.048;24.650;2024-03-25T08:39:57;96223.16;;;10.74;62.38
16461;BME280;8341;42.048;24.650;2024-03-25T08:42:24;96233.59;;;10.64;62.70
16461;BME280;8341;42.048;24.650;2024-03-25T08:44:50;96235.56;;;10.63;60.36
16461;BME280;8341;42.048;24.650;2024-03-25T08:47:16;96226.63;;;10.80;62.25
16461;BME280;8341;42.048;24.650;2024-03-25T08:49:42;96239.28;;;10.66;59.09
16461;BME280;8341;42.048;24.650;2024-03-25T08:52:08;96229.13;;;10.66;60.76
16461;BME280;8341;42.048;24.650;2024-03-25T08:54:34;96221.19;;;10.74;62.12
16461;BME280;8341;42.048;24.650;2024-03-25T08:57:00;96231.38;;;10.68;60.01
16461;BME280;8341;42.048;24.650;2024-03-25T08:59:28;96225.66;;;10.77;60.99
16461;BME280;8341;42.048;24.650;2024-03-25T09:01:54;96224.63;;;10.97;60.90
16461;BME280;8341;42.048;24.650;2024-03-25T09:04:20;96222.56;;;11.25;58.57
16461;BME280;8341;42.048;24.650;2024-03-25T09:06:46;96226.03;;;11.31;59.19
16461;BME280;8341;42.048;24.650;2024-03-25T09:09:12;96231.47;;;11.42;58.78
16461;BME280;8341;42.048;24.650;2024-03-25T09:11:56;96229.50;;;11.37;57.34
16461;BME280;8341;42.048;24.650;2024-03-25T09:14:23;96224.25;;;11.45;59.16
16461;BME280;8341;42.048;24.650;2024-03-25T09:16:53;96234.16;;;11.53;55.25
16461;BME280;8341;42.048;24.650;2024-03-25T09:19:19;96216.00;;;11.56;54.73
16461;BME280;8341;42.048;24.650;2024-03-25T09:21:45;96247.25;;;11.71;55.22
16461;BME280;8341;42.048;24.650;2024-03-25T09:24:11;96228.34;;;11.84;54.28
16461;BME280;8341;42.048;24.650;2024-03-25T09:26:37;96238.13;;;12.10;53.66
16461;BME280;8341;42.048;24.650;2024-03-25T09:29:03;96249.69;;;12.32;54.66
16461;BME280;8341;42.048;24.650;2024-03-25T09:31:29;96247.63;;;12.38;52.88
16461;BME280;8341;42.048;24.650;2024-03-25T09:33:57;96251.91;;;12.34;51.28
16461;BME280;8341;42.048;24.650;2024-03-25T09:36:23;96241.81;;;12.18;52.30
16461;BME280;8341;42.048;24.650;2024-03-25T09:38:49;96251.97;;;12.23;52.11
16461;BME280;8341;42.048;24.650;2024-03-25T09:41:15;96254.50;;;12.10;50.27
16461;BME280;8341;42.048;24.650;2024-03-25T09:43:43;96248.91;;;11.97;51.68
16461;BME280;8341;42.048;24.650;2024-03-25T09:46:10;96244.72;;;11.84;51.16
16461;BME280;8341;42.048;24.650;2024-03-25T09:48:37;96250.09;;;12.07;52.65
16461;BME280;8341;42.048;24.650;2024-03-25T09:51:05;96245.84;;;12.06;52.59
16461;BME280;8341;42.048;24.650;2024-03-25T09:53:31;96237.59;;;12.17;51.70
16461;BME280;8341;42.048;24.650;2024-03-25T09:55:57;96262.84;;;12.34;51.90
16461;BME280;8341;42.048;24.650;2024-03-25T09:58:24;96256.91;;;12.30;50.00
16461;BME280;8341;42.048;24.650;2024-03-25T10:00:51;96249.47;;;12.25;51.00
16461;BME280;8341;42.048;24.650;2024-03-25T10:03:17;96258.69;;;12.22;49.52
16461;BME280;8341;42.048;24.650;2024-03-25T10:05:43;96259.28;;;12.04;49.58
16461;BME280;8341;42.048;24.650;2024-03-25T10:08:11;96266.63;;;12.20;49.21
16461;BME280;8341;42.048;24.650;2024-03-25T10:10:37;96244.94;;;12.33;51.23
16461;BME280;8341;42.048;24.650;2024-03-25T10:13:03;96245.72;;;12.63;49.66
16461;BME280;8341;42.048;24.650;2024-03-25T10:15:29;96266.72;;;12.79;49.49
16461;BME280;8341;42.048;24.650;2024-03-25T10:17:55;96271.19;;;12.47;46.58
16461;BME280;8341;42.048;24.650;2024-03-25T10:20:21;96275.72;;;12.39;48.22
16461;BME280;8341;42.048;24.650;2024-03-25T10:22:48;96262.84;;;12.34;47.42
16461;BME280;8341;42.048;24.650;2024-03-25T10:25:26;96257.75;;;12.08;48.40
16461;BME280;8341;42.048;24.650;2024-03-25T10:27:53;96266.28;;;11.93;47.57
16461;BME280;8341;42.048;24.650;2024-03-25T10:30:19;96256.91;;;11.83;48.54
16461;BME280;8341;42.048;24.650;2024-03-25T10:32:46;96280.53;;;11.64;46.89
16461;BME280;8341;42.048;24.650;2024-03-25T10:35:12;96280.63;;;11.31;47.76
16461;BME280;8341;42.048;24.650;2024-03-25T10:37:39;96275.59;;;11.57;47.50
16461;BME280;8341;42.048;24.650;2024-03-25T10:40:07;96277.63;;;11.40;46.82
16461;BME280;8341;42.048;24.650;2024-03-25T10:42:39;96261.66;;;11.66;45.67
16461;BME280;8341;42.048;24.650;2024-03-25T10:45:09;96259.09;;;11.90;47.87
16461;BME280;8341;42.048;24.650;2024-03-25T10:47:36;96265.97;;;11.34;43.67
16461;BME280;8341;42.048;24.650;2024-03-25T10:50:08;96255.72;;;11.62;44.00
16461;BME280;8341;42.048;24.650;2024-03-25T10:52:36;96273.81;;;11.76;44.70
16461;BME280;8341;42.048;24.650;2024-03-25T10:55:03;96269.06;;;12.29;45.99
16461;BME280;8341;42.048;24.650;2024-03-25T10:57:30;96250.69;;;11.88;43.27
16461;BME280;8341;42.048;24.650;2024-03-25T10:59:58;96264.88;;;12.22;45.84
16461;BME280;8341;42.048;24.650;2024-03-25T11:02:26;96260.63;;;12.32;44.46
16461;BME280;8341;42.048;24.650;2024-03-25T11:04:53;96263.63;;;12.23;44.74
16461;BME280;8341;42.048;24.650;2024-03-25T11:07:29;96260.44;;;12.19;43.51
16461;BME280;8341;42.048;24.650;2024-03-25T11:10:03;96264.66;;;12.20;43.86
16461;BME280;8341;42.048;24.650;2024-03-25T11:12:35;96275.56;;;12.20;43.65
16461;BME280;8341;42.048;24.650;2024-03-25T11:15:04;96264.19;;;12.16;45.19
16461;BME280;8341;42.048;24.650;2024-03-25T11:17:30;96273.50;;;11.97;42.48
16461;BME280;8341;42.048;24.650;2024-03-25T11:20:07;96258.50;;;12.09;43.71
16461;BME280;8341;42.048;24.650;2024-03-25T11:22:34;96263.75;;;12.47;42.84
16461;BME280;8341;42.048;24.650;2024-03-25T11:25:05;96260.56;;;12.73;46.08
16461;BME280;8341;42.048;24.650;2024-03-25T11:27:33;96248.84;;;13.02;42.51
16461;BME280;8341;42.048;24.650;2024-03-25T11:30:00;96254.81;;;12.77;40.96
16461;BME280;8341;42.048;24.650;2024-03-25T11:32:28;96249.38;;;12.71;41.97
16461;BME280;8341;42.048;24.650;2024-03-25T11:34:54;96251.22;;;12.22;41.77
16461;BME280;8341;42.048;24.650;2024-03-25T11:37:21;96264.41;;;12.18;43.14
16461;BME280;8341;42.048;24.650;2024-03-25T11:39:47;96262.19;;;12.17;43.82
16461;BME280;8341;42.048;24.650;2024-03-25T11:42:13;96268.03;;;11.97;43.44
16461;BME280;8341;42.048;24.650;2024-03-25T11:44:39;96265.78;;;11.95;43.80
16461;BME280;8341;42.048;24.650;2024-03-25T11:47:07;96273.50;;;11.97;44.96
16461;BME280;8341;42.048;24.650;2024-03-25T11:49:38;96275.97;;;11.89;44.39
16461;BME280;8341;42.048;24.650;2024-03-25T11:52:06;96280.00;;;11.82;43.21
16461;BME280;8341;42.048;24.650;2024-03-25T11:54:32;96271.00;;;11.99;43.89
16461;BME280;8341;42.048;24.650;2024-03-25T11:56:59;96264.75;;;12.04;43.48
16461;BME280;8341;42.048;24.650;2024-03-25T11:59:25;96274.97;;;11.98;44.23
16461;BME280;8341;42.048;24.650;2024-03-25T12:01:51;96262.25;;;12.06;44.56
16461;BME280;8341;42.048;24.650;2024-03-25T12:04:18;96270.13;;;12.15;42.18
16461;BME280;8341;42.048;24.650;2024-03-25T12:06:45;96266.00;;;12.03;42.82
16461;BME280;8341;42.048;24.650;2024-03-25T12:09:11;96270.22;;;12.04;41.67
16461;BME280;8341;42.048;24.650;2024-03-25T12:11:52;96273.03;;;11.81;43.14
16461;BME280;8341;42.048;24.650;2024-03-25T12:14:19;96265.59;;;11.76;42.89
16461;BME280;8341;42.048;24.650;2024-03-25T12:16:45;96270.81;;;11.85;44.53
16461;BME280;8341;42.048;24.650;2024-03-25T12:19:11;96276.50;;;11.87;44.12
16461;BME280;8341;42.048;24.650;2024-03-25T12:21:37;96281.00;;;11.79;43.95
16461;BME280;8341;42.048;24.650;2024-03-25T12:24:06;96285.84;;;11.23;46.95
16461;BME280;8341;42.048;24.650;2024-03-25T12:26:32;96290.56;;;11.23;48.33
16461;BME280;8341;42.048;24.650;2024-03-25T12:28:58;96304.44;;;11.25;49.37
16461;BME280;8341;42.048;24.650;2024-03-25T12:31:24;96312.38;;;11.40;50.93
16461;BME280;8341;42.048;24.650;2024-03-25T12:33:50;96305.47;;;10.78;50.68
16461;BME280;8341;42.048;24.650;2024-03-25T12:36:17;96304.25;;;11.01;50.54
16461;BME280;8341;42.048;24.650;2024-03-25T12:38:43;96292.06;;;11.13;50.22
16461;BME280;8341;42.048;24.650;2024-03-25T12:41:12;96307.44;;;11.21;50.03
16461;BME280;8341;42.048;24.650;2024-03-25T12:43:42;96306.47;;;10.97;46.00
16461;BME280;8341;42.048;24.650;2024-03-25T12:46:09;96308.94;;;11.06;45.63
16461;BME280;8341;42.048;24.650;2024-03-25T12:48:35;96296.69;;;11.51;47.11
16461;BME280;8341;42.048;24.650;2024-03-25T12:51:02;96303.78;;;11.99;47.20
16461;BME280;8341;42.048;24.650;2024-03-25T12:53:28;96307.84;;;11.75;41.67
16461;BME280;8341;42.048;24.650;2024-03-25T12:55:54;96312.00;;;11.93;43.46
16461;BME280;8341;42.048;24.650;2024-03-25T12:58:21;96330.66;;;11.83;47.02
16461;BME280;8341;42.048;24.650;2024-03-25T13:00:47;96327.47;;;11.57;47.24